Time;durP1;ratioP1;P1;durP2;ratioP2;P2;SDS_P1;SDS_P2;PMS_P1;PMS_P2;Temp;Humidity;BMP_temperature;BMP_pressure;BME280_temperature;BME280_humidity;BME280_pressure;Samples;Min_cycle;Max_cycle;Signal;HPM_P1;HPM_P2
2022/12/14 00:01:51;;;;;;;47.83;21.95;;;;;;;;;;4985614;28;20189;-80
2022/12/14 00:04:18;;;;;;;48.03;23.17;;;;;;;;;;4969480;28;20468;-80
2022/12/14 00:06:44;;;;;;;45.30;21.73;;;;;;;;;;4978269;28;20041;-80
2022/12/14 00:09:10;;;;;;;46.13;21.75;;;;;;;;;;4989326;28;20100;-80
2022/12/14 00:11:36;;;;;;;47.45;23.35;;;;;;;;;;4990552;28;20049;-80
2022/12/14 00:14:03;;;;;;;45.55;20.90;;;;;;;;;;4987806;28;20022;-80
2022/12/14 00:16:31;;;;;;;46.00;22.35;;;;;;;;;;4983527;28;20399;-81
2022/12/14 00:18:58;;;;;;;44.08;21.48;;;;;;;;;;4981305;28;20158;-80
2022/12/14 00:21:24;;;;;;;43.33;21.42;;;;;;;;;;4989126;28;20039;-80
2022/12/14 00:23:51;;;;;;;47.45;22.50;;;;;;;;;;4988652;28;20064;-80
2022/12/14 00:26:19;;;;;;;45.78;21.40;;;;;;;;;;4985329;28;20491;-82
2022/12/14 00:28:45;;;;;;;41.70;20.75;;;;;;;;;;4987313;28;20050;-81
2022/12/14 00:31:11;;;;;;;46.13;22.08;;;;;;;;;;4990344;28;20018;-81
2022/12/14 00:33:38;;;;;;;48.40;22.75;;;;;;;;;;4988795;28;20452;-80
2022/12/14 00:36:05;;;;;;;50.97;22.33;;;;;;;;;;4988582;28;20380;-79
2022/12/14 00:38:31;;;;;;;44.75;21.92;;;;;;;;;;5000737;28;20023;-80
2022/12/14 00:40:57;;;;;;;47.28;22.67;;;;;;;;;;4999720;28;20026;-81
2022/12/14 00:43:23;;;;;;;48.42;23.33;;;;;;;;;;4988709;28;20077;-80
2022/12/14 00:45:50;;;;;;;50.00;22.85;;;;;;;;;;4978636;28;20073;-79
2022/12/14 00:48:17;;;;;;;49.45;24.15;;;;;;;;;;4986833;28;20562;-81
2022/12/14 00:50:44;;;;;;;51.78;23.75;;;;;;;;;;4989053;28;20058;-81
2022/12/14 00:53:10;;;;;;;46.58;22.92;;;;;;;;;;4991751;28;20026;-80
2022/12/14 00:55:37;;;;;;;56.10;23.08;;;;;;;;;;4989985;28;20681;-79
2022/12/14 00:58:04;;;;;;;50.45;22.05;;;;;;;;;;4990735;28;20038;-81
2022/12/14 01:00:30;;;;;;;51.45;23.73;;;;;;;;;;4979102;28;20113;-81
2022/12/14 01:02:56;;;;;;;47.85;23.35;;;;;;;;;;4971285;28;20034;-81
2022/12/14 01:05:22;;;;;;;48.33;22.88;;;;;;;;;;4988468;28;20042;-81
2022/12/14 01:07:48;;;;;;;51.85;23.60;;;;;;;;;;4969835;28;20022;-81
2022/12/14 01:10:14;;;;;;;53.15;23.20;;;;;;;;;;4988025;28;20019;-81
2022/12/14 01:12:40;;;;;;;49.83;22.90;;;;;;;;;;4984855;28;20034;-81
2022/12/14 01:15:07;;;;;;;54.47;24.70;;;;;;;;;;4983607;28;20411;-81
2022/12/14 01:17:33;;;;;;;56.25;25.38;;;;;;;;;;4987825;28;20117;-81
2022/12/14 01:19:59;;;;;;;50.88;24.23;;;;;;;;;;4988306;28;20030;-81
2022/12/14 01:22:25;;;;;;;52.50;23.88;;;;;;;;;;4979017;28;20578;-81
2022/12/14 01:24:51;;;;;;;52.83;24.17;;;;;;;;;;4988120;28;20296;-80
2022/12/14 01:27:17;;;;;;;51.70;24.40;;;;;;;;;;4989298;28;20034;-80
2022/12/14 01:29:43;;;;;;;53.40;24.73;;;;;;;;;;4986988;28;21649;-80
2022/12/14 01:32:10;;;;;;;51.40;23.50;;;;;;;;;;4985288;28;20504;-80
2022/12/14 01:34:36;;;;;;;49.33;22.40;;;;;;;;;;4986494;28;20034;-79
2022/12/14 01:37:02;;;;;;;49.38;24.40;;;;;;;;;;4998561;28;20035;-79
2022/12/14 01:39:28;;;;;;;49.92;23.92;;;;;;;;;;4987193;28;20048;-80
2022/12/14 01:41:54;;;;;;;50.83;24.40;;;;;;;;;;5001744;28;20034;-80
2022/12/14 01:44:20;;;;;;;49.35;22.83;;;;;;;;;;4988246;28;20476;-80
2022/12/14 01:46:52;;;;;;;52.92;23.88;;;;;;;;;;4984490;28;20026;-80
2022/12/14 01:49:29;;;;;;;54.17;24.15;;;;;;;;;;5004415;28;20144;-79
2022/12/14 01:52:14;;;;;;;54.95;25.58;;;;;;;;;;4975925;28;20031;-81
2022/12/14 01:54:44;;;;;;;51.50;23.30;;;;;;;;;;4987806;28;20069;-80
2022/12/14 01:57:12;;;;;;;55.47;23.98;;;;;;;;;;4997580;28;20026;-80
2022/12/14 01:59:40;;;;;;;51.65;23.73;;;;;;;;;;4998473;28;20507;-78
2022/12/14 02:02:07;;;;;;;54.15;24.73;;;;;;;;;;4986320;28;20030;-79
2022/12/14 02:04:34;;;;;;;54.17;24.60;;;;;;;;;;4987090;28;20066;-79
2022/12/14 02:07:02;;;;;;;52.78;23.63;;;;;;;;;;4987167;28;20037;-81
2022/12/14 02:09:33;;;;;;;50.08;24.48;;;;;;;;;;4969143;28;20506;-81
2022/12/14 02:12:05;;;;;;;49.40;23.35;;;;;;;;;;4986884;28;20018;-81
2022/12/14 02:14:33;;;;;;;54.70;24.42;;;;;;;;;;5001980;28;20046;-81
2022/12/14 02:16:59;;;;;;;54.35;24.15;;;;;;;;;;4988807;28;20467;-81
2022/12/14 02:19:26;;;;;;;52.72;22.63;;;;;;;;;;4988708;28;20045;-82
2022/12/14 02:21:58;;;;;;;44.80;21.30;;;;;;;;;;4993515;28;20105;-82
2022/12/14 02:24:33;;;;;;;47.85;21.77;;;;;;;;;;4989641;28;20057;-82
2022/12/14 02:27:18;;;;;;;45.80;22.10;;;;;;;;;;4986651;28;20038;-81
2022/12/14 02:29:53;;;;;;;48.88;23.55;;;;;;;;;;4985181;28;20388;-81
2022/12/14 02:32:22;;;;;;;44.85;21.85;;;;;;;;;;4986704;28;20034;-80
2022/12/14 02:34:51;;;;;;;45.60;22.48;;;;;;;;;;4985864;28;20030;-81
2022/12/14 02:37:17;;;;;;;48.80;21.92;;;;;;;;;;4982009;28;20487;-81
2022/12/14 02:40:19;;;;;;;47.75;21.83;;;;;;;;;;4970969;28;20534;-81
2022/12/14 02:42:53;;;;;;;50.33;21.70;;;;;;;;;;4954602;28;20091;-81
2022/12/14 02:45:23;;;;;;;49.83;21.85;;;;;;;;;;4985510;28;20490;-80
2022/12/14 02:48:16;;;;;;;46.38;22.17;;;;;;;;;;4984621;28;20137;-86
2022/12/14 02:50:57;;;;;;;44.65;21.83;;;;;;;;;;4987459;28;20129;-81
2022/12/14 02:53:26;;;;;;;41.33;20.45;;;;;;;;;;4997371;28;20050;-81
2022/12/14 02:55:53;;;;;;;45.70;21.73;;;;;;;;;;4988180;28;20037;-81
2022/12/14 02:58:28;;;;;;;43.58;21.63;;;;;;;;;;4986371;28;20446;-81
2022/12/14 03:00:55;;;;;;;44.55;21.35;;;;;;;;;;4984790;28;20384;-81
2022/12/14 03:03:21;;;;;;;45.50;22.45;;;;;;;;;;4988015;28;20037;-81
2022/12/14 03:05:58;;;;;;;44.42;22.33;;;;;;;;;;5003474;28;20546;-80
2022/12/14 03:08:25;;;;;;;44.45;21.02;;;;;;;;;;4982605;28;20180;-81
2022/12/14 03:11:02;;;;;;;44.90;21.75;;;;;;;;;;4985921;28;20034;-81
2022/12/14 03:13:40;;;;;;;49.17;21.88;;;;;;;;;;4982560;28;20026;-81
2022/12/14 03:16:12;;;;;;;46.15;22.48;;;;;;;;;;4986447;28;20022;-81
2022/12/14 03:18:45;;;;;;;48.63;22.75;;;;;;;;;;4984669;28;20038;-81
2022/12/14 03:21:13;;;;;;;51.03;22.33;;;;;;;;;;4983415;28;20391;-81
2022/12/14 03:23:40;;;;;;;47.53;24.27;;;;;;;;;;4986067;28;20412;-81
2022/12/14 03:26:27;;;;;;;51.97;24.27;;;;;;;;;;4980056;28;20416;-81
2022/12/14 03:28:55;;;;;;;49.78;21.85;;;;;;;;;;4979978;28;20499;-81
2022/12/14 03:31:25;;;;;;;49.35;21.83;;;;;;;;;;4983545;28;20380;-81
2022/12/14 03:33:53;;;;;;;44.97;21.95;;;;;;;;;;4987471;28;20035;-80
2022/12/14 03:36:24;;;;;;;49.03;23.60;;;;;;;;;;4961757;28;20117;-80
2022/12/14 03:38:52;;;;;;;47.95;21.88;;;;;;;;;;4985717;28;20031;-80
2022/12/14 03:41:30;;;;;;;46.70;22.75;;;;;;;;;;4985271;28;20387;-81
2022/12/14 03:44:03;;;;;;;44.58;21.42;;;;;;;;;;4983277;28;20070;-80
2022/12/14 03:46:47;;;;;;;48.28;22.48;;;;;;;;;;4984561;28;20133;-81
2022/12/14 03:49:19;;;;;;;50.97;22.58;;;;;;;;;;4986965;28;20045;-80
2022/12/14 03:52:05;;;;;;;49.25;22.52;;;;;;;;;;4984969;28;20451;-81
2022/12/14 03:54:31;;;;;;;51.60;23.38;;;;;;;;;;4995240;28;20027;-80
2022/12/14 03:57:02;;;;;;;49.60;23.75;;;;;;;;;;4983953;28;20480;-81
2022/12/14 03:59:29;;;;;;;;;;;;;;;;;;4981495;28;20396;-81
2022/12/14 04:02:05;;;;;;;48.47;22.58;;;;;;;;;;4992141;28;19917;-81
2022/12/14 04:04:34;;;;;;;50.85;23.42;;;;;;;;;;4987898;28;20116;-81
2022/12/14 04:07:23;;;;;;;48.28;23.00;;;;;;;;;;4982660;28;20449;-81
2022/12/14 04:09:51;;;;;;;50.63;22.98;;;;;;;;;;4984540;28;20038;-81
2022/12/14 04:20:59;;;;;;;54.20;23.65;;;;;;;;;;4989577;28;20488;-81
2022/12/14 04:26:15;;;;;;;53.95;23.25;;;;;;;;;;4989768;28;20105;-81
2022/12/14 04:31:30;;;;;;;49.95;22.67;;;;;;;;;;4988005;28;20065;-81
2022/12/14 04:33:58;;;;;;;56.40;24.23;;;;;;;;;;4988235;28;20030;-81
2022/12/14 04:36:27;;;;;;;53.88;23.55;;;;;;;;;;4988468;28;20395;-81
2022/12/14 04:38:59;;;;;;;53.28;23.13;;;;;;;;;;4987379;28;20022;-81
2022/12/14 04:41:28;;;;;;;47.28;23.33;;;;;;;;;;4983483;28;20064;-81
2022/12/14 04:43:56;;;;;;;56.58;24.42;;;;;;;;;;4987686;28;20018;-81
2022/12/14 04:46:26;;;;;;;51.45;22.98;;;;;;;;;;4985008;28;20027;-80
2022/12/14 04:49:08;;;;;;;49.80;22.95;;;;;;;;;;4976465;28;20396;-81
2022/12/14 04:51:53;;;;;;;49.60;22.63;;;;;;;;;;4996681;28;20514;-80
2022/12/14 04:54:26;;;;;;;55.05;23.20;;;;;;;;;;4983321;28;20062;-81
2022/12/14 04:57:04;;;;;;;47.95;23.88;;;;;;;;;;4990012;28;20364;-81
2022/12/14 04:59:31;;;;;;;50.38;22.63;;;;;;;;;;4987984;28;20033;-80
2022/12/14 05:02:09;;;;;;;46.70;22.35;;;;;;;;;;4966052;28;20045;-81
2022/12/14 05:04:55;;;;;;;53.05;22.08;;;;;;;;;;4985537;28;20529;-80
2022/12/14 05:07:21;;;;;;;46.47;21.17;;;;;;;;;;4960946;28;20355;-81
2022/12/14 05:09:54;;;;;;;44.72;21.77;;;;;;;;;;4988294;28;20037;-80
2022/12/14 05:12:28;;;;;;;47.60;20.83;;;;;;;;;;4990274;28;20113;-81
2022/12/14 05:15:12;;;;;;;46.63;22.58;;;;;;;;;;4985487;28;20022;-81
2022/12/14 05:17:40;;;;;;;44.58;20.98;;;;;;;;;;4984146;28;20346;-80
2022/12/14 05:20:12;;;;;;;43.47;20.70;;;;;;;;;;4987664;28;20119;-81
2022/12/14 05:22:38;;;;;;;44.70;21.17;;;;;;;;;;4989273;28;20057;-81
2022/12/14 05:25:05;;;;;;;49.88;21.83;;;;;;;;;;4986592;28;20038;-80
2022/12/14 05:27:31;;;;;;;45.17;21.05;;;;;;;;;;4986476;28;20042;-80
2022/12/14 05:29:57;;;;;;;42.53;19.60;;;;;;;;;;4975907;28;20060;-80
2022/12/14 05:32:23;;;;;;;48.08;21.27;;;;;;;;;;4988702;28;20427;-80
2022/12/14 05:34:49;;;;;;;46.03;20.25;;;;;;;;;;4984740;28;20096;-81
2022/12/14 05:37:15;;;;;;;43.20;18.88;;;;;;;;;;4984848;28;20396;-81
2022/12/14 05:39:41;;;;;;;45.85;20.75;;;;;;;;;;4985577;28;20050;-81
2022/12/14 05:42:07;;;;;;;40.42;20.10;;;;;;;;;;4985976;28;20087;-81
2022/12/14 05:44:34;;;;;;;50.90;19.90;;;;;;;;;;4990632;28;20045;-81
2022/12/14 05:47:00;;;;;;;60.70;19.98;;;;;;;;;;4977640;28;20149;-80
2022/12/14 05:49:26;;;;;;;42.40;19.13;;;;;;;;;;4985194;28;20030;-81
2022/12/14 05:51:52;;;;;;;36.83;18.15;;;;;;;;;;4983913;28;20042;-81
2022/12/14 05:54:19;;;;;;;40.55;18.50;;;;;;;;;;4988942;28;20034;-81
2022/12/14 05:56:45;;;;;;;38.33;18.15;;;;;;;;;;4984903;28;20378;-81
2022/12/14 05:59:14;;;;;;;38.15;18.73;;;;;;;;;;4989804;28;20038;-80
2022/12/14 06:01:41;;;;;;;35.53;17.85;;;;;;;;;;4987150;28;20033;-81
2022/12/14 06:04:07;;;;;;;36.00;16.92;;;;;;;;;;4973091;28;20037;-81
2022/12/14 06:06:33;;;;;;;40.70;18.85;;;;;;;;;;4987020;28;20042;-80
2022/12/14 06:09:00;;;;;;;44.22;18.45;;;;;;;;;;4985287;28;20084;-80
2022/12/14 06:11:26;;;;;;;35.38;16.52;;;;;;;;;;4983216;28;20038;-80
2022/12/14 06:13:52;;;;;;;39.05;17.73;;;;;;;;;;4988885;28;20062;-81
2022/12/14 06:16:20;;;;;;;42.47;16.20;;;;;;;;;;4988754;28;20050;-80
2022/12/14 06:18:47;;;;;;;35.58;17.35;;;;;;;;;;4990158;28;20112;-80
2022/12/14 06:21:14;;;;;;;35.33;16.63;;;;;;;;;;4983815;28;20031;-81
2022/12/14 06:23:40;;;;;;;36.90;16.13;;;;;;;;;;4989772;28;20026;-81
2022/12/14 06:26:07;;;;;;;41.22;16.63;;;;;;;;;;4989499;28;20037;-81
2022/12/14 06:28:33;;;;;;;38.55;17.98;;;;;;;;;;4990239;28;20023;-80
2022/12/14 06:30:59;;;;;;;33.85;16.02;;;;;;;;;;4988156;28;20397;-80
2022/12/14 06:33:25;;;;;;;38.83;16.70;;;;;;;;;;5005939;28;20035;-80
2022/12/14 06:35:51;;;;;;;34.72;16.38;;;;;;;;;;5005858;28;20088;-80
2022/12/14 06:38:17;;;;;;;31.73;15.38;;;;;;;;;;4985544;28;20351;-81
2022/12/14 06:40:44;;;;;;;36.60;16.38;;;;;;;;;;4975095;28;20667;-80
2022/12/14 06:43:10;;;;;;;33.55;16.40;;;;;;;;;;4988288;28;20052;-80
2022/12/14 06:45:37;;;;;;;36.58;16.33;;;;;;;;;;4989151;28;20042;-80
2022/12/14 06:48:03;;;;;;;33.00;16.23;;;;;;;;;;4989491;28;20040;-81
2022/12/14 06:50:30;;;;;;;41.70;16.80;;;;;;;;;;4990376;28;20022;-81
2022/12/14 06:52:56;;;;;;;34.20;15.80;;;;;;;;;;4989464;28;20055;-81
2022/12/14 06:55:22;;;;;;;36.25;16.25;;;;;;;;;;4989039;28;20542;-81
2022/12/14 06:57:52;;;;;;;40.28;18.67;;;;;;;;;;4987879;28;20041;-80
2022/12/14 07:00:19;;;;;;;38.25;17.02;;;;;;;;;;4986892;28;20042;-80
2022/12/14 07:02:45;;;;;;;41.90;17.20;;;;;;;;;;4986534;28;20034;-81
2022/12/14 07:05:13;;;;;;;37.53;16.95;;;;;;;;;;4988595;28;20045;-81
2022/12/14 07:07:39;;;;;;;40.55;17.40;;;;;;;;;;4988921;28;20053;-79
2022/12/14 07:10:07;;;;;;;36.28;15.57;;;;;;;;;;4985126;28;20334;-79
2022/12/14 07:12:33;;;;;;;39.42;17.42;;;;;;;;;;4985086;28;20396;-79
2022/12/14 07:14:59;;;;;;;39.72;18.00;;;;;;;;;;4981481;28;20450;-79
2022/12/14 07:17:26;;;;;;;41.50;18.15;;;;;;;;;;4985543;28;20033;-79
2022/12/14 07:19:52;;;;;;;40.72;17.67;;;;;;;;;;4983026;28;20141;-79
2022/12/14 07:22:18;;;;;;;36.20;17.27;;;;;;;;;;4976922;28;20047;-79
2022/12/14 07:24:44;;;;;;;40.25;17.55;;;;;;;;;;4994215;28;20821;-79
2022/12/14 07:27:12;;;;;;;39.92;19.33;;;;;;;;;;4979098;28;20618;-79
2022/12/14 07:29:39;;;;;;;46.05;20.48;;;;;;;;;;4978261;28;20038;-79
2022/12/14 07:32:05;;;;;;;47.00;21.40;;;;;;;;;;5004569;28;20348;-79
2022/12/14 07:34:31;;;;;;;51.33;23.27;;;;;;;;;;4990618;28;20443;-79
2022/12/14 07:36:57;;;;;;;45.83;21.55;;;;;;;;;;5006220;28;20038;-78
2022/12/14 07:39:25;;;;;;;53.97;22.08;;;;;;;;;;4986550;28;20506;-86
2022/12/14 07:41:53;;;;;;;49.72;21.55;;;;;;;;;;4990128;28;20037;-78
2022/12/14 07:44:20;;;;;;;44.85;21.25;;;;;;;;;;4989400;28;20080;-79
2022/12/14 07:46:46;;;;;;;53.97;23.88;;;;;;;;;;4989319;28;20412;-79
2022/12/14 07:49:12;;;;;;;52.55;22.73;;;;;;;;;;4987833;28;20030;-79
2022/12/14 07:51:40;;;;;;;53.60;22.67;;;;;;;;;;4978382;28;20057;-79
2022/12/14 07:54:06;;;;;;;51.83;21.65;;;;;;;;;;4974392;28;20070;-79
2022/12/14 07:56:35;;;;;;;53.28;23.58;;;;;;;;;;5008830;28;20517;-78
2022/12/14 07:59:05;;;;;;;59.70;23.88;;;;;;;;;;4993284;28;20254;-79
2022/12/14 08:01:33;;;;;;;60.63;24.08;;;;;;;;;;4991367;28;20042;-80
2022/12/14 08:04:09;;;;;;;57.78;24.10;;;;;;;;;;4991573;28;20026;-79
2022/12/14 08:06:36;;;;;;;62.50;24.90;;;;;;;;;;4991437;28;20069;-79
2022/12/14 08:09:03;;;;;;;56.72;23.50;;;;;;;;;;5008631;28;20022;-79
2022/12/14 08:11:29;;;;;;;60.85;26.35;;;;;;;;;;4992326;28;20161;-81
2022/12/14 08:14:00;;;;;;;64.78;25.95;;;;;;;;;;4993985;28;20391;-78
2022/12/14 08:16:26;;;;;;;;;;;;;;;;;;4991346;28;20554;-79
2022/12/14 08:18:53;;;;;;;61.10;25.33;;;;;;;;;;4991507;28;19992;-79
2022/12/14 08:21:21;;;;;;;65.28;26.42;;;;;;;;;;4992117;28;20121;-79
2022/12/14 08:23:47;;;;;;;63.42;27.23;;;;;;;;;;4991365;28;20117;-79
2022/12/14 08:26:14;;;;;;;65.30;26.70;;;;;;;;;;4992008;28;20052;-79
2022/12/14 08:28:40;;;;;;;63.35;26.67;;;;;;;;;;4991323;28;20062;-79
2022/12/14 08:31:08;;;;;;;57.72;25.33;;;;;;;;;;4993488;28;20285;-79
2022/12/14 08:33:34;;;;;;;63.83;26.30;;;;;;;;;;4990780;28;20026;-79
2022/12/14 08:36:05;;;;;;;62.13;26.65;;;;;;;;;;4990677;28;20501;-80
2022/12/14 08:38:31;;;;;;;59.47;26.73;;;;;;;;;;4991946;28;20058;-77
2022/12/14 08:41:01;;;;;;;65.88;27.35;;;;;;;;;;4991516;28;20038;-79
2022/12/14 08:43:27;;;;;;;59.53;26.10;;;;;;;;;;5004253;28;20708;-80
2022/12/14 08:45:54;;;;;;;59.58;26.80;;;;;;;;;;4991748;28;20403;-79
2022/12/14 08:48:20;;;;;;;65.88;27.63;;;;;;;;;;4991953;28;20046;-79
2022/12/14 08:50:47;;;;;;;73.15;28.02;;;;;;;;;;4992958;28;20023;-79
2022/12/14 08:53:13;;;;;;;64.10;27.75;;;;;;;;;;4991117;28;20038;-78
2022/12/14 08:55:39;;;;;;;63.58;27.35;;;;;;;;;;5007747;28;20034;-78
2022/12/14 08:58:05;;;;;;;76.38;28.45;;;;;;;;;;4991710;28;20030;-79
2022/12/14 09:00:31;;;;;;;76.05;28.63;;;;;;;;;;4991752;28;20528;-79
2022/12/14 09:02:58;;;;;;;67.18;30.85;;;;;;;;;;4988572;28;20105;-78
2022/12/14 09:05:24;;;;;;;76.15;30.92;;;;;;;;;;5006793;28;20042;-79
2022/12/14 09:07:50;;;;;;;75.15;29.98;;;;;;;;;;4991976;28;20049;-79
2022/12/14 09:10:16;;;;;;;65.38;30.27;;;;;;;;;;4991518;28;20399;-79
2022/12/14 09:12:43;;;;;;;73.95;31.98;;;;;;;;;;5006625;28;20069;-78
2022/12/14 09:15:09;;;;;;;83.18;30.95;;;;;;;;;;4987780;28;20030;-79
2022/12/14 09:17:35;;;;;;;81.03;32.35;;;;;;;;;;4988323;28;20087;-78
2022/12/14 09:20:02;;;;;;;76.50;30.63;;;;;;;;;;4990690;28;20042;-83
2022/12/14 09:22:28;;;;;;;67.47;29.05;;;;;;;;;;4992629;28;20483;-81
2022/12/14 09:24:54;;;;;;;61.92;27.83;;;;;;;;;;4990403;28;20045;-79
2022/12/14 09:27:21;;;;;;;62.28;28.10;;;;;;;;;;4989360;28;20037;-79
2022/12/14 09:29:47;;;;;;;64.82;27.60;;;;;;;;;;5004343;28;20125;-79
2022/12/14 09:32:13;;;;;;;55.28;27.05;;;;;;;;;;4990475;28;20117;-78
2022/12/14 09:34:39;;;;;;;58.20;25.55;;;;;;;;;;4989759;28;20042;-78
2022/12/14 09:37:06;;;;;;;58.75;27.08;;;;;;;;;;4990201;28;20034;-79
2022/12/14 09:39:32;;;;;;;56.92;27.02;;;;;;;;;;4990315;28;20026;-78
2022/12/14 09:42:17;;;;;;;51.92;25.92;;;;;;;;;;4990698;28;20037;-78
2022/12/14 09:44:43;;;;;;;53.50;24.83;;;;;;;;;;4990395;28;20483;-78
2022/12/14 09:47:20;;;;;;;57.20;25.70;;;;;;;;;;4990901;28;20058;-79
2022/12/14 09:50:25;;;;;;;60.15;26.38;;;;;;;;;;4989544;28;20321;-78
2022/12/14 09:52:56;;;;;;;52.17;23.88;;;;;;;;;;4953868;28;20538;-79
2022/12/14 09:55:25;;;;;;;46.47;23.25;;;;;;;;;;4953027;28;21264;-79
2022/12/14 09:57:55;;;;;;;43.03;21.00;;;;;;;;;;4971954;28;20038;-79
2022/12/14 10:00:22;;;;;;;47.47;23.08;;;;;;;;;;4982188;28;20092;-78
2022/12/14 10:03:04;;;;;;;45.35;21.10;;;;;;;;;;4990667;28;20023;-79
2022/12/14 10:05:30;;;;;;;43.22;22.05;;;;;;;;;;4986090;28;20022;-79
2022/12/14 10:08:15;;;;;;;40.95;20.95;;;;;;;;;;5003859;28;20101;-78
2022/12/14 10:10:57;;;;;;;42.20;20.98;;;;;;;;;;4988898;28;20480;-79
2022/12/14 10:13:28;;;;;;;42.30;21.27;;;;;;;;;;4990172;28;20403;-79
2022/12/14 10:15:59;;;;;;;43.10;21.63;;;;;;;;;;4987499;28;20023;-79
2022/12/14 10:18:25;;;;;;;;;;;;;;;;;;4990922;28;20030;-82
2022/12/14 10:20:51;;;;;;;43.80;20.70;;;;;;;;;;4990406;28;19965;-79
2022/12/14 10:23:20;;;;;;;42.13;19.80;;;;;;;;;;4989922;28;20476;-79
2022/12/14 10:25:48;;;;;;;43.70;20.80;;;;;;;;;;4989298;28;20026;-79
2022/12/14 10:28:17;;;;;;;42.67;20.90;;;;;;;;;;4973786;28;20035;-78
2022/12/14 10:30:43;;;;;;;40.92;20.00;;;;;;;;;;4970425;28;20081;-78
2022/12/14 10:33:19;;;;;;;39.60;19.35;;;;;;;;;;4974771;28;20046;-78
2022/12/14 10:35:55;;;;;;;47.20;20.65;;;;;;;;;;4988895;28;20081;-78
2022/12/14 10:38:40;;;;;;;42.97;20.42;;;;;;;;;;4988866;28;20753;-78
2022/12/14 10:41:17;;;;;;;37.78;19.70;;;;;;;;;;4989147;28;20038;-78
2022/12/14 10:43:43;;;;;;;38.08;19.23;;;;;;;;;;4986254;28;20073;-78
2022/12/14 10:46:12;;;;;;;41.30;20.05;;;;;;;;;;4978187;28;20034;-78
2022/12/14 10:48:58;;;;;;;48.83;21.05;;;;;;;;;;4988607;28;20545;-78
2022/12/14 10:51:36;;;;;;;41.45;19.75;;;;;;;;;;4988741;28;20038;-78
2022/12/14 10:54:02;;;;;;;41.83;19.77;;;;;;;;;;4985816;28;20391;-78
2022/12/14 10:56:30;;;;;;;43.15;19.50;;;;;;;;;;4988812;28;20399;-79
2022/12/14 10:59:24;;;;;;;40.67;18.50;;;;;;;;;;4989526;28;20037;-78
2022/12/14 11:02:02;;;;;;;41.40;18.63;;;;;;;;;;4987004;28;20042;-78
2022/12/14 11:04:28;;;;;;;38.95;18.27;;;;;;;;;;4986867;28;20026;-79
2022/12/14 11:06:55;;;;;;;37.90;18.67;;;;;;;;;;4988960;28;20031;-78
2022/12/14 11:09:22;;;;;;;38.45;18.65;;;;;;;;;;4990498;28;20042;-78
2022/12/14 11:11:54;;;;;;;35.35;18.33;;;;;;;;;;4984515;28;20034;-78
2022/12/14 11:14:21;;;;;;;40.15;18.58;;;;;;;;;;4987045;28;20172;-78
2022/12/14 11:16:48;;;;;;;37.38;18.10;;;;;;;;;;5005426;28;20035;-78
2022/12/14 11:19:22;;;;;;;39.95;20.00;;;;;;;;;;5005928;28;20030;-78
2022/12/14 11:21:49;;;;;;;37.20;18.58;;;;;;;;;;4988160;28;20483;-78
2022/12/14 11:24:23;;;;;;;43.75;18.98;;;;;;;;;;4988800;28;20517;-77
2022/12/14 11:26:52;;;;;;;40.72;18.95;;;;;;;;;;4988560;28;20056;-78
2022/12/14 11:29:32;;;;;;;35.38;18.38;;;;;;;;;;4991175;28;20028;-78
2022/12/14 11:31:59;;;;;;;35.03;17.63;;;;;;;;;;4992997;28;20031;-78
2022/12/14 11:34:37;;;;;;;39.63;18.15;;;;;;;;;;4991266;28;20059;-79
2022/12/14 11:37:24;;;;;;;33.70;17.17;;;;;;;;;;4982733;28;20033;-78
2022/12/14 11:39:56;;;;;;;37.58;17.10;;;;;;;;;;4993798;28;20034;-78
2022/12/14 11:42:22;;;;;;;35.95;17.55;;;;;;;;;;4994547;28;20377;-78
2022/12/14 11:44:49;;;;;;;35.55;17.75;;;;;;;;;;4990462;28;20061;-78
2022/12/14 11:47:20;;;;;;;34.95;18.48;;;;;;;;;;4992032;28;20030;-78
2022/12/14 11:49:50;;;;;;;34.03;18.40;;;;;;;;;;4994733;28;20045;-78
2022/12/14 11:52:25;;;;;;;24.88;12.95;;;;;;;;;;4992840;28;20096;-78
2022/12/14 11:54:51;;;;;;;30.90;15.60;;;;;;;;;;4986952;28;20543;-78
2022/12/14 11:57:21;;;;;;;30.23;15.65;;;;;;;;;;4992587;28;20030;-78
2022/12/14 11:59:53;;;;;;;29.05;15.70;;;;;;;;;;4992672;28;20042;-79
2022/12/14 12:02:22;;;;;;;32.88;17.05;;;;;;;;;;4991745;28;20038;-78
2022/12/14 12:04:53;;;;;;;36.00;18.75;;;;;;;;;;4981147;28;20027;-79
2022/12/14 12:07:19;;;;;;;;;;;;;;;;;;4993207;28;20030;-79
2022/12/14 12:09:46;;;;;;;36.92;18.90;;;;;;;;;;4992807;28;19925;-78
2022/12/14 12:12:17;;;;;;;38.95;17.95;;;;;;;;;;4992686;28;20034;-78
2022/12/14 12:14:46;;;;;;;36.50;17.77;;;;;;;;;;4990487;28;20030;-79
2022/12/14 12:17:36;;;;;;;32.92;17.80;;;;;;;;;;4992180;28;20092;-79
2022/12/14 12:20:03;;;;;;;29.35;15.68;;;;;;;;;;4989047;28;20038;-78
2022/12/14 12:22:30;;;;;;;29.95;16.15;;;;;;;;;;4993508;28;20425;-82
2022/12/14 12:24:59;;;;;;;31.75;15.85;;;;;;;;;;4980882;28;20089;-81
2022/12/14 12:27:26;;;;;;;26.42;15.57;;;;;;;;;;4990989;28;20459;-81
2022/12/14 12:29:52;;;;;;;27.27;14.48;;;;;;;;;;4992325;28;20026;-81
2022/12/14 12:32:21;;;;;;;25.20;14.35;;;;;;;;;;4990721;28;20328;-80
2022/12/14 12:34:49;;;;;;;28.65;13.95;;;;;;;;;;4992308;28;20030;-82
2022/12/14 12:37:17;;;;;;;24.67;12.98;;;;;;;;;;4991808;28;20041;-80
2022/12/14 12:39:45;;;;;;;26.13;13.13;;;;;;;;;;4992998;28;20030;-80
2022/12/14 12:42:14;;;;;;;22.42;12.70;;;;;;;;;;4990981;28;20109;-80
2022/12/14 12:44:44;;;;;;;23.42;12.43;;;;;;;;;;4990058;28;20514;-79
2022/12/14 12:47:23;;;;;;;22.75;12.27;;;;;;;;;;4991973;28;20463;-79
2022/12/14 12:49:49;;;;;;;22.73;13.23;;;;;;;;;;4991984;28;20038;-80
2022/12/14 12:52:20;;;;;;;27.48;13.10;;;;;;;;;;4991140;28;20053;-80
2022/12/14 12:55:06;;;;;;;20.10;12.38;;;;;;;;;;4989884;28;20435;-80
2022/12/14 12:57:35;;;;;;;31.48;13.93;;;;;;;;;;4991166;28;20034;-80
2022/12/14 13:00:04;;;;;;;20.58;12.35;;;;;;;;;;4990039;28;20022;-80
2022/12/14 13:02:33;;;;;;;21.95;12.32;;;;;;;;;;4991188;28;20049;-80
2022/12/14 13:05:07;;;;;;;18.83;11.50;;;;;;;;;;4990922;28;20571;-81
2022/12/14 13:07:54;;;;;;;24.92;12.05;;;;;;;;;;4991663;28;20026;-79
2022/12/14 13:10:21;;;;;;;20.95;11.70;;;;;;;;;;4989247;28;20023;-80
2022/12/14 13:13:07;;;;;;;23.65;11.90;;;;;;;;;;4992775;28;20065;-80
2022/12/14 13:15:33;;;;;;;20.20;11.52;;;;;;;;;;4998260;28;20034;-81
2022/12/14 13:18:03;;;;;;;20.80;11.23;;;;;;;;;;4990636;28;20030;-81
2022/12/14 13:20:33;;;;;;;37.08;11.75;;;;;;;;;;4992422;28;20480;-81
2022/12/14 13:22:59;;;;;;;17.80;8.33;;;;;;;;;;5005807;28;20126;-80
2022/12/14 13:25:34;;;;;;;19.02;11.60;;;;;;;;;;4990565;28;20042;-81
2022/12/14 13:28:09;;;;;;;19.83;11.50;;;;;;;;;;4990730;28;20135;-80
2022/12/14 13:30:53;;;;;;;26.55;12.50;;;;;;;;;;4990545;28;20615;-81
2022/12/14 13:33:25;;;;;;;20.50;11.60;;;;;;;;;;4991027;28;20141;-80
2022/12/14 13:35:57;;;;;;;20.00;11.80;;;;;;;;;;4990631;28;20026;-79
2022/12/14 13:38:36;;;;;;;21.95;11.48;;;;;;;;;;4990586;28;20400;-80
2022/12/14 13:41:11;;;;;;;25.40;11.27;;;;;;;;;;4992246;28;20041;-80
2022/12/14 13:43:51;;;;;;;18.85;10.55;;;;;;;;;;4990671;28;20045;-81
2022/12/14 13:46:28;;;;;;;19.23;10.63;;;;;;;;;;4989656;28;20403;-81
2022/12/14 13:48:56;;;;;;;19.25;11.48;;;;;;;;;;4991726;28;20176;-81
2022/12/14 13:51:28;;;;;;;22.40;10.98;;;;;;;;;;4988356;28;20117;-80
2022/12/14 13:53:58;;;;;;;18.23;11.25;;;;;;;;;;4990223;28;20050;-80
2022/12/14 13:56:42;;;;;;;19.05;10.63;;;;;;;;;;4989661;28;20027;-81
2022/12/14 13:59:24;;;;;;;18.92;10.70;;;;;;;;;;4987749;28;20109;-80
2022/12/14 14:01:53;;;;;;;18.00;9.77;;;;;;;;;;4989421;28;20038;-80
2022/12/14 14:04:20;;;;;;;17.42;10.50;;;;;;;;;;4990499;28;20030;-80
2022/12/14 14:06:48;;;;;;;18.40;10.30;;;;;;;;;;4989497;28;20061;-80
2022/12/14 14:09:23;;;;;;;19.95;10.25;;;;;;;;;;4976945;28;20027;-80
2022/12/14 14:12:21;;;;;;;16.25;9.73;;;;;;;;;;4973029;28;20116;-80
2022/12/14 14:14:57;;;;;;;17.30;10.20;;;;;;;;;;5005077;28;20118;-80
2022/12/14 14:17:29;;;;;;;19.27;10.82;;;;;;;;;;4990503;28;20041;-80
2022/12/14 14:19:57;;;;;;;19.38;10.43;;;;;;;;;;5005236;28;20085;-80
2022/12/14 14:22:25;;;;;;;19.67;11.68;;;;;;;;;;4990616;28;20410;-80
2022/12/14 14:24:53;;;;;;;19.02;10.45;;;;;;;;;;5006414;28;20464;-79
2022/12/14 14:27:22;;;;;;;23.15;10.60;;;;;;;;;;4988598;28;20038;-79
2022/12/14 14:29:49;;;;;;;20.02;10.75;;;;;;;;;;5005235;28;20038;-80
2022/12/14 14:32:30;;;;;;;19.65;11.60;;;;;;;;;;4996455;28;20400;-81
2022/12/14 14:34:56;;;;;;;18.65;11.45;;;;;;;;;;4989294;28;20085;-80
2022/12/14 14:37:28;;;;;;;19.63;11.43;;;;;;;;;;4989316;28;20049;-80
2022/12/14 14:40:02;;;;;;;22.40;12.32;;;;;;;;;;4988270;28;20391;-81
2022/12/14 14:42:32;;;;;;;22.88;11.82;;;;;;;;;;4987717;28;20516;-81
2022/12/14 14:45:03;;;;;;;27.45;12.32;;;;;;;;;;4989108;28;20045;-79
2022/12/14 14:47:31;;;;;;;31.98;12.13;;;;;;;;;;4990814;28;20044;-81
2022/12/14 14:50:07;;;;;;;45.05;11.85;;;;;;;;;;4988187;28;20451;-81